Flight Track Log - Related Links

Times and Time Zones

All times are in EDT time to prevent confusion due to time zone crossing. See the DAL969 flight status page for this flight to view local times or setup timezone preferences in your user account.

Time Position Orientation Groundspeed Altitude Reporting Facility
EDT Latitude Longitude Course Direction KTS MPH feet Rate Location/Type
Thu 08:39:14 AM 27.9667 -82.5500 304° West 179 206 600  Level Tampa TRACON
Thu 08:44:24 AM 28.0600 -82.7092 349° North 326 375 13,200 2,488 Climbing Jacksonville Center
Thu 08:45:23 AM 28.1686 -82.7325 349° North 364 419 15,900 2,622 Climbing Jacksonville Center
Thu 08:46:23 AM 28.2814 -82.7583 349° North 392 451 18,400 2,331 Climbing Jacksonville Center
Thu 08:47:24 AM 28.4003 -82.7839 351° North 412 474 20,600 2,132 Climbing Jacksonville Center
Thu 08:48:24 AM 28.5233 -82.8053 349° North 434 499 22,700 2,067 Climbing Jacksonville Center
Thu 08:49:23 AM 28.6486 -82.8333 336° Northwest 446 513 24,700 1,900 Climbing Jacksonville Center
Thu 08:50:24 AM 28.7633 -82.8903 332° Northwest 446 513 26,500 1,636 Climbing Jacksonville Center
Thu 08:51:24 AM 28.8761 -82.9589 331° Northwest 452 520 28,000 1,550 Climbing Jacksonville Center
Thu 08:52:24 AM 28.9908 -83.0303 332° Northwest 459 528 29,600 1,800 Climbing Jacksonville Center
Thu 08:53:24 AM 29.1078 -83.1017 332° Northwest 465 535 31,600 1,200 Climbing Jacksonville Center
Thu 08:54:24 AM 29.2203 -83.1708 333° Northwest 465 535 32,000 200 Climbing Jacksonville Center
Thu 08:55:24 AM 29.3350 -83.2381 331° Northwest 465 535 32,000  Level Jacksonville Center
Thu 08:56:24 AM 29.4475 -83.3100 333° Northwest 460 529 32,000  Level Jacksonville Center
Thu 08:57:24 AM 29.5600 -83.3772 332° Northwest 455 524 32,000  Level Jacksonville Center
Thu 08:58:24 AM 29.6725 -83.4447 332° Northwest 455 524 32,000  Level Jacksonville Center
Thu 08:59:23 AM 29.7847 -83.5147 334° Northwest 455 524 32,000  Level Jacksonville Center
Thu 09:00:23 AM 29.8992 -83.5803 331° Northwest 455 524 32,000  Level Jacksonville Center
Thu 09:01:23 AM 30.0219 -83.6578 333° Northwest 455 524 32,000  Level Jacksonville Center
Thu 09:02:23 AM 30.1364 -83.7261 332° Northwest 455 524 32,000  Level Jacksonville Center
Thu 09:03:23 AM 30.2508 -83.7967 331° Northwest 455 524 32,000  Level Jacksonville Center
Thu 09:04:23 AM 30.3631 -83.8675 332° Northwest 455 524 32,000  Level Jacksonville Center
Thu 09:05:23 AM 30.4772 -83.9386 333° Northwest 455 524 32,000  Level Jacksonville Center
Thu 09:06:23 AM 30.5686 -83.9928 332° Northwest 455 524 32,000  Level Jacksonville Center
Thu 09:07:23 AM 30.6933 -84.0692 333° Northwest 455 524 32,000  Level Jacksonville Center
Thu 09:08:23 AM 30.8075 -84.1383 330° Northwest 455 524 32,000  Level Jacksonville Center
Thu 09:09:23 AM 30.9194 -84.2122 333° Northwest 455 524 32,000  Level Jacksonville Center
Thu 09:10:23 AM 31.0314 -84.2794 331° Northwest 455 524 32,000  Level Jacksonville Center
Thu 09:11:23 AM 31.1475 -84.3539 332° Northwest 455 524 32,000  Level Jacksonville Center
Thu 09:12:23 AM 31.2594 -84.4236 331° Northwest 460 529 32,000  Level Jacksonville Center
Thu 09:14:31 AM 31.5117 -84.5844 332° Northwest 447 514 32,000  Level Atlanta Center
Thu 09:15:31 AM 31.6242 -84.6536 332° Northwest 454 522 32,000 -400 Level Atlanta Center
Thu 09:16:31 AM 31.7364 -84.7250 333° Northwest 454 522 31,200 -800 Descending Atlanta Center
Thu 09:17:31 AM 31.8508 -84.7944 341° North 454 522 30,400 -800 Descending Atlanta Center
Thu 09:18:31 AM 31.9714 -84.8444 345° North 454 522 29,600 -750 Descending Atlanta Center
Thu 09:19:31 AM 32.0964 -84.8847 344° North 454 522 28,900 -550 Descending Atlanta Center
Thu 09:20:31 AM 32.2214 -84.9275 346° North 459 528 28,500 -450 Descending Atlanta Center
Thu 09:21:31 AM 32.3317 -84.9606 344° North 458 527 28,000 -1,000 Descending Atlanta Center
Thu 09:22:31 AM 32.4650 -85.0064 345° North 451 519 26,500 -2,000 Descending Atlanta Center
Thu 09:23:31 AM 32.5858 -85.0447 343° North 446 513 24,000 2,750 Descending Atlanta Center
Thu 09:24:31 AM 32.6961 -85.0856 343° North 440 506 32,000 -2,550 Climbing Atlanta Center
Thu 09:25:31 AM 32.8022 -85.1236 345° North 414 476 18,900 -7,700 Descending Atlanta Center
Thu 09:26:31 AM 32.9083 -85.1572 North 401 461 16,600 -2,350 Descending Atlanta Center
Thu 09:27:31 AM 33.0086 -85.1436 25° Northeast 365 420 14,200 -2,000 Descending Atlanta Center
Thu 09:28:31 AM 33.0989 -85.0928 31° Northeast 359 413 12,600 -1,050 Descending Atlanta Center
Thu 09:29:31 AM 33.1767 -85.0364 38° Northeast 329 379 12,100 -550 Descending Atlanta Center
Thu 09:30:31 AM 33.2333 -84.9825 27° Northeast 307 353 11,500 -1,100 Descending Atlanta Center
Thu 09:31:31 AM 33.3047 -84.9386 19° North 285 328 9,900 -1,550 Descending Atlanta Center
Thu 09:32:31 AM 33.3800 -84.9069 North 272 313 8,400 -950 Descending Atlanta Center
Thu 09:33:31 AM 33.4572 -84.8953 North 277 319 8,000 -250 Descending Atlanta Center
Thu 09:34:31 AM 33.5367 -84.8861 11° North 277 319 7,900 -496 Descending Atlanta Center
Thu 09:35:32 AM 33.6078 -84.8694 76° East 267 307 7,000 -560 Descending Atlanta Center
Thu 09:37:01 AM 33.6333 -84.7500 90° East 225 259 6,500 -685 Descending Atlanta TRACON
Thu 09:38:01 AM 33.6333 -84.6833 90° East 214 246 5,300 -1,350 Descending Atlanta TRACON
Thu 09:39:01 AM 33.6333 -84.6167 90° East 183 211 3,800 -1,263 Descending Atlanta TRACON
Thu 09:39:55 AM 33.6333 -84.5667 90° East 182 209 2,900 -947 Descending Atlanta TRACON
Thu 09:40:55 AM 33.6333 -84.5000 90° East 154 177 2,000 -762 Descending Atlanta TRACON
Thu 09:42:01 AM 33.6333 -84.4500 90° East 129 148 1,300 -636 Descending Atlanta TRACON
Thu 09:49:32 AM 33.6333 -84.4167 90° East  Level FlightAware Approximate

Login

Don't have an account? Register now (free) for customized features, flight alerts, and more!